sensor_id;sensor_type;location;lat;lon;timestamp;P1;durP1;ratioP1;P2;durP2;ratioP2
18999;SDS011;9633;50.980;13.850;2023-04-15T00:00:37;3.30;;;2.80;;
18999;SDS011;9633;50.980;13.850;2023-04-15T00:02:13;2.90;;;2.63;;
18999;SDS011;9633;50.980;13.850;2023-04-15T00:03:47;3.80;;;2.70;;
18999;SDS011;9633;50.980;13.850;2023-04-15T00:05:22;2.87;;;2.57;;
18999;SDS011;9633;50.980;13.850;2023-04-15T00:06:57;2.60;;;2.40;;
18999;SDS011;9633;50.980;13.850;2023-04-15T00:08:30;2.63;;;2.30;;
18999;SDS011;9633;50.980;13.850;2023-04-15T00:10:03;3.23;;;2.93;;
18999;SDS011;9633;50.980;13.850;2023-04-15T00:11:37;3.00;;;2.70;;
18999;SDS011;9633;50.980;13.850;2023-04-15T00:13:09;2.70;;;2.50;;
18999;SDS011;9633;50.980;13.850;2023-04-15T00:14:42;2.60;;;2.40;;
18999;SDS011;9633;50.980;13.850;2023-04-15T00:16:15;2.13;;;1.93;;
18999;SDS011;9633;50.980;13.850;2023-04-15T00:17:49;2.80;;;2.27;;
18999;SDS011;9633;50.980;13.850;2023-04-15T00:19:23;2.90;;;2.57;;
18999;SDS011;9633;50.980;13.850;2023-04-15T00:20:56;3.10;;;2.50;;
18999;SDS011;9633;50.980;13.850;2023-04-15T00:22:31;2.20;;;2.00;;
18999;SDS011;9633;50.980;13.850;2023-04-15T00:24:04;2.30;;;2.10;;
18999;SDS011;9633;50.980;13.850;2023-04-15T00:25:38;2.43;;;2.23;;
18999;SDS011;9633;50.980;13.850;2023-04-15T00:27:11;2.50;;;2.30;;
18999;SDS011;9633;50.980;13.850;2023-04-15T00:28:44;2.67;;;2.47;;
18999;SDS011;9633;50.980;13.850;2023-04-15T00:30:17;2.60;;;2.30;;
18999;SDS011;9633;50.980;13.850;2023-04-15T00:31:50;2.57;;;2.10;;
18999;SDS011;9633;50.980;13.850;2023-04-15T00:33:24;2.63;;;2.20;;
18999;SDS011;9633;50.980;13.850;2023-04-15T00:34:57;2.60;;;2.40;;
18999;SDS011;9633;50.980;13.850;2023-04-15T00:36:31;2.47;;;2.27;;
18999;SDS011;9633;50.980;13.850;2023-04-15T00:38:06;2.20;;;2.00;;
18999;SDS011;9633;50.980;13.850;2023-04-15T00:39:39;2.33;;;1.93;;
18999;SDS011;9633;50.980;13.850;2023-04-15T00:41:13;1.97;;;1.87;;
18999;SDS011;9633;50.980;13.850;2023-04-15T00:42:46;2.67;;;2.30;;
18999;SDS011;9633;50.980;13.850;2023-04-15T00:44:19;2.33;;;2.13;;
18999;SDS011;9633;50.980;13.850;2023-04-15T00:45:53;2.77;;;2.10;;
18999;SDS011;9633;50.980;13.850;2023-04-15T00:47:28;2.17;;;1.97;;
18999;SDS011;9633;50.980;13.850;2023-04-15T00:49:02;2.60;;;2.40;;
18999;SDS011;9633;50.980;13.850;2023-04-15T00:50:36;2.50;;;2.20;;
18999;SDS011;9633;50.980;13.850;2023-04-15T00:52:10;2.17;;;1.97;;
18999;SDS011;9633;50.980;13.850;2023-04-15T00:53:44;2.40;;;2.10;;
18999;SDS011;9633;50.980;13.850;2023-04-15T00:55:18;2.83;;;2.00;;
18999;SDS011;9633;50.980;13.850;2023-04-15T00:56:51;2.47;;;2.27;;
18999;SDS011;9633;50.980;13.850;2023-04-15T00:58:24;2.43;;;2.23;;
18999;SDS011;9633;50.980;13.850;2023-04-15T00:59:59;2.20;;;2.00;;
18999;SDS011;9633;50.980;13.850;2023-04-15T01:01:33;1.77;;;1.67;;
18999;SDS011;9633;50.980;13.850;2023-04-15T01:03:07;1.87;;;1.77;;
18999;SDS011;9633;50.980;13.850;2023-04-15T01:04:40;2.60;;;2.20;;
18999;SDS011;9633;50.980;13.850;2023-04-15T01:06:13;2.60;;;1.90;;
18999;SDS011;9633;50.980;13.850;2023-04-15T01:07:48;2.00;;;1.80;;
18999;SDS011;9633;50.980;13.850;2023-04-15T01:09:22;2.13;;;1.90;;
18999;SDS011;9633;50.980;13.850;2023-04-15T01:10:56;2.40;;;1.90;;
18999;SDS011;9633;50.980;13.850;2023-04-15T01:12:32;2.77;;;1.90;;
18999;SDS011;9633;50.980;13.850;2023-04-15T01:14:07;1.87;;;1.77;;
18999;SDS011;9633;50.980;13.850;2023-04-15T01:15:41;2.20;;;1.90;;
18999;SDS011;9633;50.980;13.850;2023-04-15T01:17:14;2.17;;;1.53;;
18999;SDS011;9633;50.980;13.850;2023-04-15T01:18:48;1.93;;;1.80;;
18999;SDS011;9633;50.980;13.850;2023-04-15T01:20:22;1.87;;;1.77;;
18999;SDS011;9633;50.980;13.850;2023-04-15T01:21:56;2.13;;;1.83;;
18999;SDS011;9633;50.980;13.850;2023-04-15T01:23:29;2.90;;;2.20;;
18999;SDS011;9633;50.980;13.850;2023-04-15T01:25:04;2.00;;;1.80;;
18999;SDS011;9633;50.980;13.850;2023-04-15T01:26:42;2.40;;;2.20;;
18999;SDS011;9633;50.980;13.850;2023-04-15T01:28:16;2.67;;;2.00;;
18999;SDS011;9633;50.980;13.850;2023-04-15T01:29:48;2.00;;;1.80;;
18999;SDS011;9633;50.980;13.850;2023-04-15T01:31:22;2.63;;;1.67;;
18999;SDS011;9633;50.980;13.850;2023-04-15T01:32:55;3.17;;;2.00;;
18999;SDS011;9633;50.980;13.850;2023-04-15T01:34:28;2.10;;;1.83;;
18999;SDS011;9633;50.980;13.850;2023-04-15T01:36:00;1.83;;;1.63;;
18999;SDS011;9633;50.980;13.850;2023-04-15T01:37:34;2.00;;;1.90;;
18999;SDS011;9633;50.980;13.850;2023-04-15T01:39:07;2.77;;;2.13;;
18999;SDS011;9633;50.980;13.850;2023-04-15T01:40:40;2.13;;;1.93;;
18999;SDS011;9633;50.980;13.850;2023-04-15T01:42:14;2.57;;;2.20;;
18999;SDS011;9633;50.980;13.850;2023-04-15T01:43:47;3.03;;;2.00;;
18999;SDS011;9633;50.980;13.850;2023-04-15T01:45:20;1.97;;;1.77;;
18999;SDS011;9633;50.980;13.850;2023-04-15T01:46:53;1.83;;;1.73;;
18999;SDS011;9633;50.980;13.850;2023-04-15T01:48:26;2.73;;;2.00;;
18999;SDS011;9633;50.980;13.850;2023-04-15T01:50:00;2.27;;;2.07;;
18999;SDS011;9633;50.980;13.850;2023-04-15T01:51:33;2.50;;;2.30;;
18999;SDS011;9633;50.980;13.850;2023-04-15T01:53:06;2.43;;;2.23;;
18999;SDS011;9633;50.980;13.850;2023-04-15T01:54:38;2.83;;;2.20;;
18999;SDS011;9633;50.980;13.850;2023-04-15T01:56:12;2.20;;;2.00;;
18999;SDS011;9633;50.980;13.850;2023-04-15T01:57:48;2.23;;;2.03;;
18999;SDS011;9633;50.980;13.850;2023-04-15T01:59:24;2.47;;;2.27;;
18999;SDS011;9633;50.980;13.850;2023-04-15T02:00:58;2.67;;;2.27;;
18999;SDS011;9633;50.980;13.850;2023-04-15T02:02:35;2.37;;;2.17;;
18999;SDS011;9633;50.980;13.850;2023-04-15T02:04:08;2.60;;;2.40;;
18999;SDS011;9633;50.980;13.850;2023-04-15T02:05:46;2.67;;;2.37;;
18999;SDS011;9633;50.980;13.850;2023-04-15T02:07:19;2.70;;;2.50;;
18999;SDS011;9633;50.980;13.850;2023-04-15T02:08:52;3.50;;;2.30;;
18999;SDS011;9633;50.980;13.850;2023-04-15T02:10:25;2.87;;;2.57;;
18999;SDS011;9633;50.980;13.850;2023-04-15T02:11:57;2.90;;;2.30;;
18999;SDS011;9633;50.980;13.850;2023-04-15T02:13:33;2.90;;;2.50;;
18999;SDS011;9633;50.980;13.850;2023-04-15T02:15:07;2.70;;;2.50;;
18999;SDS011;9633;50.980;13.850;2023-04-15T02:16:40;3.17;;;2.77;;
18999;SDS011;9633;50.980;13.850;2023-04-15T02:18:13;2.70;;;2.50;;
18999;SDS011;9633;50.980;13.850;2023-04-15T02:19:47;2.57;;;2.37;;
18999;SDS011;9633;50.980;13.850;2023-04-15T02:21:20;3.03;;;2.57;;
18999;SDS011;9633;50.980;13.850;2023-04-15T02:22:52;2.63;;;2.40;;
18999;SDS011;9633;50.980;13.850;2023-04-15T02:24:27;2.97;;;2.60;;
18999;SDS011;9633;50.980;13.850;2023-04-15T02:26:01;2.57;;;2.23;;
18999;SDS011;9633;50.980;13.850;2023-04-15T02:27:35;3.17;;;2.50;;
18999;SDS011;9633;50.980;13.850;2023-04-15T02:29:09;2.70;;;2.37;;
18999;SDS011;9633;50.980;13.850;2023-04-15T02:30:46;2.40;;;2.20;;
18999;SDS011;9633;50.980;13.850;2023-04-15T02:32:21;2.70;;;2.50;;
18999;SDS011;9633;50.980;13.850;2023-04-15T02:33:54;2.93;;;2.63;;
18999;SDS011;9633;50.980;13.850;2023-04-15T02:35:27;2.63;;;2.43;;
18999;SDS011;9633;50.980;13.850;2023-04-15T02:37:00;3.00;;;2.70;;
18999;SDS011;9633;50.980;13.850;2023-04-15T02:38:34;2.77;;;2.40;;
18999;SDS011;9633;50.980;13.850;2023-04-15T02:40:08;3.00;;;2.70;;
18999;SDS011;9633;50.980;13.850;2023-04-15T02:41:43;3.23;;;2.87;;
18999;SDS011;9633;50.980;13.850;2023-04-15T02:43:18;3.17;;;2.70;;
18999;SDS011;9633;50.980;13.850;2023-04-15T02:44:53;2.93;;;2.50;;
18999;SDS011;9633;50.980;13.850;2023-04-15T02:46:31;3.03;;;2.70;;
18999;SDS011;9633;50.980;13.850;2023-04-15T02:48:04;3.50;;;2.40;;
18999;SDS011;9633;50.980;13.850;2023-04-15T02:49:37;2.47;;;2.27;;
18999;SDS011;9633;50.980;13.850;2023-04-15T02:51:11;2.73;;;2.53;;
18999;SDS011;9633;50.980;13.850;2023-04-15T02:52:45;4.23;;;2.40;;
18999;SDS011;9633;50.980;13.850;2023-04-15T02:54:18;4.30;;;2.60;;
18999;SDS011;9633;50.980;13.850;2023-04-15T02:55:53;2.50;;;2.30;;
18999;SDS011;9633;50.980;13.850;2023-04-15T02:57:26;2.70;;;2.33;;
18999;SDS011;9633;50.980;13.850;2023-04-15T02:59:02;3.00;;;2.47;;
18999;SDS011;9633;50.980;13.850;2023-04-15T03:00:36;2.70;;;2.43;;
18999;SDS011;9633;50.980;13.850;2023-04-15T03:02:09;3.33;;;2.40;;
18999;SDS011;9633;50.980;13.850;2023-04-15T03:03:42;3.00;;;2.53;;
18999;SDS011;9633;50.980;13.850;2023-04-15T03:05:15;2.40;;;2.20;;
18999;SDS011;9633;50.980;13.850;2023-04-15T03:06:54;2.60;;;2.37;;
18999;SDS011;9633;50.980;13.850;2023-04-15T03:08:27;2.93;;;2.60;;
18999;SDS011;9633;50.980;13.850;2023-04-15T03:10:01;2.73;;;2.50;;
18999;SDS011;9633;50.980;13.850;2023-04-15T03:11:34;2.60;;;2.40;;
18999;SDS011;9633;50.980;13.850;2023-04-15T03:13:12;3.63;;;2.50;;
18999;SDS011;9633;50.980;13.850;2023-04-15T03:14:46;2.50;;;2.30;;
18999;SDS011;9633;50.980;13.850;2023-04-15T03:16:20;3.30;;;2.63;;
18999;SDS011;9633;50.980;13.850;2023-04-15T03:17:53;3.00;;;2.60;;
18999;SDS011;9633;50.980;13.850;2023-04-15T03:19:26;3.60;;;2.80;;
18999;SDS011;9633;50.980;13.850;2023-04-15T03:21:01;2.90;;;2.60;;
18999;SDS011;9633;50.980;13.850;2023-04-15T03:22:38;3.50;;;2.93;;
18999;SDS011;9633;50.980;13.850;2023-04-15T03:24:11;3.20;;;2.90;;
18999;SDS011;9633;50.980;13.850;2023-04-15T03:25:43;3.40;;;2.97;;
18999;SDS011;9633;50.980;13.850;2023-04-15T03:27:18;3.00;;;2.70;;
18999;SDS011;9633;50.980;13.850;2023-04-15T03:28:51;2.93;;;2.60;;
18999;SDS011;9633;50.980;13.850;2023-04-15T03:30:24;2.83;;;2.30;;
18999;SDS011;9633;50.980;13.850;2023-04-15T03:31:58;3.13;;;2.60;;
18999;SDS011;9633;50.980;13.850;2023-04-15T03:33:35;2.83;;;2.30;;
18999;SDS011;9633;50.980;13.850;2023-04-15T03:35:08;2.60;;;2.30;;
18999;SDS011;9633;50.980;13.850;2023-04-15T03:36:40;2.40;;;2.20;;
18999;SDS011;9633;50.980;13.850;2023-04-15T03:38:14;3.50;;;2.33;;
18999;SDS011;9633;50.980;13.850;2023-04-15T03:39:47;2.23;;;2.03;;
18999;SDS011;9633;50.980;13.850;2023-04-15T03:41:19;3.07;;;2.13;;
18999;SDS011;9633;50.980;13.850;2023-04-15T03:42:52;2.00;;;1.83;;
18999;SDS011;9633;50.980;13.850;2023-04-15T03:44:25;2.20;;;2.00;;
18999;SDS011;9633;50.980;13.850;2023-04-15T03:45:58;2.30;;;2.10;;
18999;SDS011;9633;50.980;13.850;2023-04-15T03:47:33;2.90;;;1.87;;
18999;SDS011;9633;50.980;13.850;2023-04-15T03:49:06;2.17;;;1.97;;
18999;SDS011;9633;50.980;13.850;2023-04-15T03:50:39;2.40;;;2.20;;
18999;SDS011;9633;50.980;13.850;2023-04-15T03:52:11;2.33;;;2.10;;
18999;SDS011;9633;50.980;13.850;2023-04-15T03:53:45;2.27;;;2.00;;
18999;SDS011;9633;50.980;13.850;2023-04-15T03:55:18;2.30;;;2.10;;
18999;SDS011;9633;50.980;13.850;2023-04-15T03:56:51;2.20;;;2.00;;
18999;SDS011;9633;50.980;13.850;2023-04-15T03:58:24;2.30;;;2.10;;
18999;SDS011;9633;50.980;13.850;2023-04-15T03:59:57;2.33;;;2.00;;
18999;SDS011;9633;50.980;13.850;2023-04-15T04:01:30;2.80;;;2.10;;
18999;SDS011;9633;50.980;13.850;2023-04-15T04:03:04;2.47;;;1.87;;
18999;SDS011;9633;50.980;13.850;2023-04-15T04:04:39;2.30;;;2.10;;
18999;SDS011;9633;50.980;13.850;2023-04-15T04:06:12;2.33;;;2.13;;
18999;SDS011;9633;50.980;13.850;2023-04-15T04:07:44;2.67;;;2.00;;
18999;SDS011;9633;50.980;13.850;2023-04-15T04:09:17;2.17;;;1.97;;
18999;SDS011;9633;50.980;13.850;2023-04-15T04:10:50;2.43;;;1.93;;
18999;SDS011;9633;50.980;13.850;2023-04-15T04:12:23;3.10;;;2.13;;
18999;SDS011;9633;50.980;13.850;2023-04-15T04:13:56;2.40;;;2.20;;
18999;SDS011;9633;50.980;13.850;2023-04-15T04:15:29;2.30;;;2.10;;
18999;SDS011;9633;50.980;13.850;2023-04-15T04:17:02;2.20;;;2.00;;
18999;SDS011;9633;50.980;13.850;2023-04-15T04:18:36;2.93;;;2.47;;
18999;SDS011;9633;50.980;13.850;2023-04-15T04:20:10;2.80;;;2.37;;
18999;SDS011;9633;50.980;13.850;2023-04-15T04:21:43;2.87;;;2.53;;
18999;SDS011;9633;50.980;13.850;2023-04-15T04:23:16;3.43;;;2.63;;
18999;SDS011;9633;50.980;13.850;2023-04-15T04:24:49;3.00;;;2.50;;
18999;SDS011;9633;50.980;13.850;2023-04-15T04:26:21;3.50;;;2.40;;
18999;SDS011;9633;50.980;13.850;2023-04-15T04:27:54;2.47;;;2.27;;
18999;SDS011;9633;50.980;13.850;2023-04-15T04:29:27;3.60;;;2.47;;
18999;SDS011;9633;50.980;13.850;2023-04-15T04:31:01;2.57;;;2.20;;
18999;SDS011;9633;50.980;13.850;2023-04-15T04:32:34;3.23;;;2.20;;
18999;SDS011;9633;50.980;13.850;2023-04-15T04:34:08;2.53;;;1.90;;
18999;SDS011;9633;50.980;13.850;2023-04-15T04:35:42;2.27;;;2.07;;
18999;SDS011;9633;50.980;13.850;2023-04-15T04:37:14;2.30;;;2.10;;
18999;SDS011;9633;50.980;13.850;2023-04-15T04:38:47;2.33;;;2.13;;
18999;SDS011;9633;50.980;13.850;2023-04-15T04:40:20;2.10;;;1.90;;
18999;SDS011;9633;50.980;13.850;2023-04-15T04:41:53;3.10;;;2.50;;
18999;SDS011;9633;50.980;13.850;2023-04-15T04:43:26;2.27;;;2.07;;
18999;SDS011;9633;50.980;13.850;2023-04-15T04:44:59;2.53;;;2.23;;
18999;SDS011;9633;50.980;13.850;2023-04-15T04:46:32;2.87;;;2.10;;
18999;SDS011;9633;50.980;13.850;2023-04-15T04:48:05;2.37;;;2.10;;
18999;SDS011;9633;50.980;13.850;2023-04-15T04:49:41;3.57;;;2.40;;
18999;SDS011;9633;50.980;13.850;2023-04-15T04:51:14;2.37;;;2.00;;
18999;SDS011;9633;50.980;13.850;2023-04-15T04:52:47;2.17;;;1.97;;
18999;SDS011;9633;50.980;13.850;2023-04-15T04:54:21;2.97;;;2.23;;
18999;SDS011;9633;50.980;13.850;2023-04-15T04:55:54;2.63;;;2.40;;
18999;SDS011;9633;50.980;13.850;2023-04-15T04:57:27;2.53;;;2.27;;
18999;SDS011;9633;50.980;13.850;2023-04-15T04:59:00;2.10;;;1.90;;
18999;SDS011;9633;50.980;13.850;2023-04-15T05:00:33;2.17;;;1.90;;
18999;SDS011;9633;50.980;13.850;2023-04-15T05:02:08;2.43;;;2.17;;
18999;SDS011;9633;50.980;13.850;2023-04-15T05:03:41;2.33;;;2.00;;
18999;SDS011;9633;50.980;13.850;2023-04-15T05:05:16;3.23;;;2.80;;
18999;SDS011;9633;50.980;13.850;2023-04-15T05:06:49;2.60;;;2.00;;
18999;SDS011;9633;50.980;13.850;2023-04-15T05:08:22;1.93;;;1.73;;
18999;SDS011;9633;50.980;13.850;2023-04-15T05:09:55;3.00;;;2.13;;
18999;SDS011;9633;50.980;13.850;2023-04-15T05:11:28;1.80;;;1.70;;
18999;SDS011;9633;50.980;13.850;2023-04-15T05:13:01;2.70;;;2.03;;
18999;SDS011;9633;50.980;13.850;2023-04-15T05:14:35;2.00;;;1.77;;
18999;SDS011;9633;50.980;13.850;2023-04-15T05:16:08;2.10;;;1.90;;
18999;SDS011;9633;50.980;13.850;2023-04-15T05:17:40;2.80;;;1.80;;
18999;SDS011;9633;50.980;13.850;2023-04-15T05:19:13;1.67;;;1.57;;
18999;SDS011;9633;50.980;13.850;2023-04-15T05:20:47;1.60;;;1.50;;
18999;SDS011;9633;50.980;13.850;2023-04-15T05:22:21;1.20;;;1.10;;
18999;SDS011;9633;50.980;13.850;2023-04-15T05:23:54;1.77;;;1.20;;
18999;SDS011;9633;50.980;13.850;2023-04-15T05:25:27;1.47;;;1.23;;
18999;SDS011;9633;50.980;13.850;2023-04-15T05:27:00;1.77;;;1.37;;
18999;SDS011;9633;50.980;13.850;2023-04-15T05:28:34;1.60;;;1.00;;
18999;SDS011;9633;50.980;13.850;2023-04-15T05:30:07;1.53;;;1.00;;
18999;SDS011;9633;50.980;13.850;2023-04-15T05:31:43;1.10;;;1.00;;
18999;SDS011;9633;50.980;13.850;2023-04-15T05:33:16;1.73;;;0.93;;
18999;SDS011;9633;50.980;13.850;2023-04-15T05:34:50;0.90;;;0.80;;
18999;SDS011;9633;50.980;13.850;2023-04-15T05:36:24;0.80;;;0.70;;
18999;SDS011;9633;50.980;13.850;2023-04-15T05:37:58;1.10;;;1.00;;
18999;SDS011;9633;50.980;13.850;2023-04-15T05:39:31;6.20;;;3.27;;
18999;SDS011;9633;50.980;13.850;2023-04-15T05:41:04;3.03;;;2.43;;
18999;SDS011;9633;50.980;13.850;2023-04-15T05:42:38;6.20;;;4.80;;
18999;SDS011;9633;50.980;13.850;2023-04-15T05:44:11;3.47;;;3.13;;
18999;SDS011;9633;50.980;13.850;2023-04-15T05:45:45;2.80;;;2.60;;
18999;SDS011;9633;50.980;13.850;2023-04-15T05:47:18;2.20;;;2.10;;
18999;SDS011;9633;50.980;13.850;2023-04-15T05:48:51;0.90;;;0.90;;
18999;SDS011;9633;50.980;13.850;2023-04-15T05:50:26;1.47;;;0.87;;
18999;SDS011;9633;50.980;13.850;2023-04-15T05:52:01;1.00;;;0.53;;
18999;SDS011;9633;50.980;13.850;2023-04-15T05:53:34;1.40;;;0.60;;
18999;SDS011;9633;50.980;13.850;2023-04-15T05:55:07;0.60;;;0.60;;
18999;SDS011;9633;50.980;13.850;2023-04-15T05:56:41;0.47;;;0.47;;
18999;SDS011;9633;50.980;13.850;2023-04-15T05:58:14;0.50;;;0.50;;
18999;SDS011;9633;50.980;13.850;2023-04-15T05:59:47;0.50;;;0.50;;
18999;SDS011;9633;50.980;13.850;2023-04-15T06:01:22;0.47;;;0.47;;
18999;SDS011;9633;50.980;13.850;2023-04-15T06:02:56;0.73;;;0.50;;
18999;SDS011;9633;50.980;13.850;2023-04-15T06:04:29;0.50;;;0.50;;
18999;SDS011;9633;50.980;13.850;2023-04-15T06:06:03;0.40;;;0.40;;
18999;SDS011;9633;50.980;13.850;2023-04-15T06:07:37;0.40;;;0.40;;
18999;SDS011;9633;50.980;13.850;2023-04-15T06:09:11;0.47;;;0.47;;
18999;SDS011;9633;50.980;13.850;2023-04-15T06:10:44;0.40;;;0.33;;
18999;SDS011;9633;50.980;13.850;2023-04-15T06:12:17;0.47;;;0.30;;
18999;SDS011;9633;50.980;13.850;2023-04-15T06:13:50;0.40;;;0.40;;
18999;SDS011;9633;50.980;13.850;2023-04-15T06:15:22;0.40;;;0.40;;
18999;SDS011;9633;50.980;13.850;2023-04-15T06:16:56;0.53;;;0.50;;
18999;SDS011;9633;50.980;13.850;2023-04-15T06:18:29;0.40;;;0.40;;
18999;SDS011;9633;50.980;13.850;2023-04-15T06:20:02;0.63;;;0.40;;
18999;SDS011;9633;50.980;13.850;2023-04-15T06:21:36;1.10;;;0.50;;
18999;SDS011;9633;50.980;13.850;2023-04-15T06:23:10;0.60;;;0.60;;
18999;SDS011;9633;50.980;13.850;2023-04-15T06:24:44;0.50;;;0.50;;
18999;SDS011;9633;50.980;13.850;2023-04-15T06:26:17;1.00;;;0.40;;
18999;SDS011;9633;50.980;13.850;2023-04-15T06:27:50;0.67;;;0.60;;
18999;SDS011;9633;50.980;13.850;2023-04-15T06:29:23;0.50;;;0.50;;
18999;SDS011;9633;50.980;13.850;2023-04-15T06:30:56;1.17;;;0.57;;
18999;SDS011;9633;50.980;13.850;2023-04-15T06:32:29;0.50;;;0.50;;
18999;SDS011;9633;50.980;13.850;2023-04-15T06:34:04;0.77;;;0.40;;
18999;SDS011;9633;50.980;13.850;2023-04-15T06:35:37;0.77;;;0.43;;
18999;SDS011;9633;50.980;13.850;2023-04-15T06:37:10;0.43;;;0.43;;
18999;SDS011;9633;50.980;13.850;2023-04-15T06:38:47;0.40;;;0.40;;
18999;SDS011;9633;50.980;13.850;2023-04-15T06:40:21;1.23;;;0.40;;
18999;SDS011;9633;50.980;13.850;2023-04-15T06:41:54;1.00;;;0.60;;
18999;SDS011;9633;50.980;13.850;2023-04-15T06:43:27;0.47;;;0.47;;
18999;SDS011;9633;50.980;13.850;2023-04-15T06:45:00;1.57;;;0.57;;
18999;SDS011;9633;50.980;13.850;2023-04-15T06:46:33;1.57;;;0.43;;
18999;SDS011;9633;50.980;13.850;2023-04-15T06:48:07;0.40;;;0.40;;
18999;SDS011;9633;50.980;13.850;2023-04-15T06:49:40;0.50;;;0.50;;
18999;SDS011;9633;50.980;13.850;2023-04-15T06:51:13;0.77;;;0.30;;
18999;SDS011;9633;50.980;13.850;2023-04-15T06:52:46;1.27;;;0.60;;
18999;SDS011;9633;50.980;13.850;2023-04-15T06:54:21;0.70;;;0.50;;
18999;SDS011;9633;50.980;13.850;2023-04-15T06:55:54;0.50;;;0.50;;
18999;SDS011;9633;50.980;13.850;2023-04-15T06:57:27;0.63;;;0.40;;
18999;SDS011;9633;50.980;13.850;2023-04-15T06:59:00;0.80;;;0.70;;
18999;SDS011;9633;50.980;13.850;2023-04-15T07:00:34;0.70;;;0.60;;
18999;SDS011;9633;50.980;13.850;2023-04-15T07:02:09;0.90;;;0.43;;
18999;SDS011;9633;50.980;13.850;2023-04-15T07:03:44;0.50;;;0.40;;
18999;SDS011;9633;50.980;13.850;2023-04-15T07:05:18;1.87;;;0.40;;
18999;SDS011;9633;50.980;13.850;2023-04-15T07:06:51;0.60;;;0.50;;
18999;SDS011;9633;50.980;13.850;2023-04-15T07:08:25;1.60;;;0.30;;
18999;SDS011;9633;50.980;13.850;2023-04-15T07:10:00;0.93;;;0.50;;
18999;SDS011;9633;50.980;13.850;2023-04-15T07:11:33;0.43;;;0.40;;
18999;SDS011;9633;50.980;13.850;2023-04-15T07:13:06;0.67;;;0.47;;
18999;SDS011;9633;50.980;13.850;2023-04-15T07:14:40;1.07;;;0.67;;
18999;SDS011;9633;50.980;13.850;2023-04-15T07:16:13;0.53;;;0.53;;
18999;SDS011;9633;50.980;13.850;2023-04-15T07:17:46;0.60;;;0.50;;
18999;SDS011;9633;50.980;13.850;2023-04-15T07:19:20;0.40;;;0.40;;
18999;SDS011;9633;50.980;13.850;2023-04-15T07:20:53;1.00;;;0.60;;
18999;SDS011;9633;50.980;13.850;2023-04-15T07:22:26;1.50;;;1.30;;
18999;SDS011;9633;50.980;13.850;2023-04-15T07:23:59;0.97;;;0.60;;
18999;SDS011;9633;50.980;13.850;2023-04-15T07:25:34;0.80;;;0.70;;
18999;SDS011;9633;50.980;13.850;2023-04-15T07:27:07;0.97;;;0.70;;
18999;SDS011;9633;50.980;13.850;2023-04-15T07:28:40;0.73;;;0.70;;
18999;SDS011;9633;50.980;13.850;2023-04-15T07:30:12;0.87;;;0.73;;
18999;SDS011;9633;50.980;13.850;2023-04-15T07:31:46;1.07;;;0.80;;
18999;SDS011;9633;50.980;13.850;2023-04-15T07:33:19;0.93;;;0.70;;
18999;SDS011;9633;50.980;13.850;2023-04-15T07:34:52;0.60;;;0.60;;
18999;SDS011;9633;50.980;13.850;2023-04-15T07:36:25;1.37;;;0.60;;
18999;SDS011;9633;50.980;13.850;2023-04-15T07:37:59;0.63;;;0.60;;
18999;SDS011;9633;50.980;13.850;2023-04-15T07:39:33;0.63;;;0.60;;
18999;SDS011;9633;50.980;13.850;2023-04-15T07:41:07;0.60;;;0.60;;
18999;SDS011;9633;50.980;13.850;2023-04-15T07:42:40;1.37;;;0.87;;
18999;SDS011;9633;50.980;13.850;2023-04-15T07:44:14;0.90;;;0.60;;
18999;SDS011;9633;50.980;13.850;2023-04-15T07:45:47;0.90;;;0.80;;
18999;SDS011;9633;50.980;13.850;2023-04-15T07:47:20;0.67;;;0.67;;
18999;SDS011;9633;50.980;13.850;2023-04-15T07:48:54;1.53;;;0.70;;
18999;SDS011;9633;50.980;13.850;2023-04-15T07:50:27;0.90;;;0.63;;
18999;SDS011;9633;50.980;13.850;2023-04-15T07:52:00;0.83;;;0.73;;
18999;SDS011;9633;50.980;13.850;2023-04-15T07:53:34;1.00;;;0.90;;
18999;SDS011;9633;50.980;13.850;2023-04-15T07:55:07;1.33;;;1.00;;
18999;SDS011;9633;50.980;13.850;2023-04-15T07:56:43;1.00;;;0.87;;
18999;SDS011;9633;50.980;13.850;2023-04-15T07:58:16;1.80;;;0.87;;
18999;SDS011;9633;50.980;13.850;2023-04-15T07:59:49;0.80;;;0.80;;
18999;SDS011;9633;50.980;13.850;2023-04-15T08:01:22;0.83;;;0.80;;
18999;SDS011;9633;50.980;13.850;2023-04-15T08:02:55;0.63;;;0.60;;
18999;SDS011;9633;50.980;13.850;2023-04-15T08:04:30;1.73;;;0.70;;
18999;SDS011;9633;50.980;13.850;2023-04-15T08:06:04;0.80;;;0.80;;
18999;SDS011;9633;50.980;13.850;2023-04-15T08:07:38;0.93;;;0.83;;
18999;SDS011;9633;50.980;13.850;2023-04-15T08:09:11;1.30;;;1.00;;
18999;SDS011;9633;50.980;13.850;2023-04-15T08:10:44;1.20;;;0.90;;
18999;SDS011;9633;50.980;13.850;2023-04-15T08:12:19;0.80;;;0.80;;
18999;SDS011;9633;50.980;13.850;2023-04-15T08:13:52;1.20;;;0.63;;
18999;SDS011;9633;50.980;13.850;2023-04-15T08:15:25;2.53;;;0.60;;
18999;SDS011;9633;50.980;13.850;2023-04-15T08:16:58;0.77;;;0.70;;
18999;SDS011;9633;50.980;13.850;2023-04-15T08:18:31;1.47;;;0.80;;
18999;SDS011;9633;50.980;13.850;2023-04-15T08:20:05;1.67;;;1.00;;
18999;SDS011;9633;50.980;13.850;2023-04-15T08:21:39;1.03;;;0.90;;
18999;SDS011;9633;50.980;13.850;2023-04-15T08:23:12;2.50;;;1.90;;
18999;SDS011;9633;50.980;13.850;2023-04-15T08:24:45;3.17;;;2.20;;
18999;SDS011;9633;50.980;13.850;2023-04-15T08:26:18;2.40;;;2.20;;
18999;SDS011;9633;50.980;13.850;2023-04-15T08:27:55;3.70;;;2.23;;
18999;SDS011;9633;50.980;13.850;2023-04-15T08:29:28;3.60;;;2.47;;
18999;SDS011;9633;50.980;13.850;2023-04-15T08:31:00;3.33;;;3.03;;
18999;SDS011;9633;50.980;13.850;2023-04-15T08:32:34;2.73;;;2.53;;
18999;SDS011;9633;50.980;13.850;2023-04-15T08:34:07;3.40;;;3.10;;
18999;SDS011;9633;50.980;13.850;2023-04-15T08:35:40;3.00;;;2.70;;
18999;SDS011;9633;50.980;13.850;2023-04-15T08:37:14;3.40;;;2.77;;
18999;SDS011;9633;50.980;13.850;2023-04-15T08:38:47;3.10;;;2.80;;
18999;SDS011;9633;50.980;13.850;2023-04-15T08:40:20;3.63;;;3.30;;
18999;SDS011;9633;50.980;13.850;2023-04-15T08:42:01;3.40;;;3.10;;
18999;SDS011;9633;50.980;13.850;2023-04-15T08:43:39;3.40;;;3.10;;
18999;SDS011;9633;50.980;13.850;2023-04-15T08:45:19;3.70;;;3.40;;
18999;SDS011;9633;50.980;13.850;2023-04-15T08:46:52;3.33;;;3.03;;
18999;SDS011;9633;50.980;13.850;2023-04-15T08:48:28;4.33;;;3.60;;
18999;SDS011;9633;50.980;13.850;2023-04-15T08:50:03;3.40;;;3.10;;
18999;SDS011;9633;50.980;13.850;2023-04-15T08:51:40;3.30;;;3.00;;
18999;SDS011;9633;50.980;13.850;2023-04-15T08:53:13;3.97;;;3.47;;
18999;SDS011;9633;50.980;13.850;2023-04-15T08:54:47;3.80;;;3.07;;
18999;SDS011;9633;50.980;13.850;2023-04-15T08:56:21;5.40;;;3.43;;
18999;SDS011;9633;50.980;13.850;2023-04-15T08:57:57;4.00;;;3.30;;
18999;SDS011;9633;50.980;13.850;2023-04-15T08:59:31;3.20;;;2.90;;
18999;SDS011;9633;50.980;13.850;2023-04-15T09:01:04;3.53;;;3.07;;
18999;SDS011;9633;50.980;13.850;2023-04-15T09:02:38;4.07;;;3.67;;
18999;SDS011;9633;50.980;13.850;2023-04-15T09:04:11;3.43;;;3.00;;
18999;SDS011;9633;50.980;13.850;2023-04-15T09:05:45;3.17;;;2.87;;
18999;SDS011;9633;50.980;13.850;2023-04-15T09:07:18;3.13;;;2.83;;
18999;SDS011;9633;50.980;13.850;2023-04-15T09:08:52;3.10;;;2.80;;
18999;SDS011;9633;50.980;13.850;2023-04-15T09:10:25;3.53;;;3.23;;
18999;SDS011;9633;50.980;13.850;2023-04-15T09:12:00;4.50;;;3.00;;
18999;SDS011;9633;50.980;13.850;2023-04-15T09:13:33;3.13;;;2.83;;
18999;SDS011;9633;50.980;13.850;2023-04-15T09:15:08;3.27;;;2.97;;
18999;SDS011;9633;50.980;13.850;2023-04-15T09:16:56;4.33;;;3.40;;
18999;SDS011;9633;50.980;13.850;2023-04-15T09:18:30;3.80;;;3.50;;
18999;SDS011;9633;50.980;13.850;2023-04-15T09:20:08;3.97;;;3.53;;
18999;SDS011;9633;50.980;13.850;2023-04-15T09:21:41;3.90;;;3.50;;
18999;SDS011;9633;50.980;13.850;2023-04-15T09:23:19;4.47;;;4.07;;
18999;SDS011;9633;50.980;13.850;2023-04-15T09:24:52;4.50;;;4.07;;